Time;durP1;ratioP1;P1;durP2;ratioP2;P2;SDS_P1;SDS_P2;PMS_P1;PMS_P2;Temp;Humidity;BMP_temperature;BMP_pressure;BME280_temperature;BME280_humidity;BME280_pressure;Samples;Min_cycle;Max_cycle;Signal;HPM_P1;HPM_P2
2023/05/12 00:00:55;;;;;;;8.50;5.10;;;17.10;62.80;;;;;;5052719;28;20505;-48
2023/05/12 00:03:22;;;;;;;6.93;4.93;;;17.50;63.10;;;;;;5052381;28;20454;-49
2023/05/12 00:05:49;;;;;;;6.93;5.07;;;17.10;62.70;;;;;;5052523;28;21004;-48
2023/05/12 00:08:15;;;;;;;8.10;4.87;;;17.50;63.20;;;;;;5052380;28;20441;-48
2023/05/12 00:10:42;;;;;;;6.10;4.27;;;17.60;63.40;;;;;;5052715;28;20492;-48
2023/05/12 00:13:09;;;;;;;8.57;4.93;;;17.30;63.10;;;;;;5051892;28;20440;-47
2023/05/12 00:15:36;;;;;;;10.13;4.30;;;16.90;62.80;;;;;;5051918;28;20451;-48
2023/05/12 00:18:04;;;;;;;5.10;4.53;;;17.10;63.10;;;;;;5051813;28;20437;-50
2023/05/12 00:20:31;;;;;;;6.30;5.07;;;17.10;63.20;;;;;;5051863;28;20441;-47
2023/05/12 00:22:58;;;;;;;8.03;4.70;;;16.90;63.00;;;;;;5050507;28;20444;-50
2023/05/12 00:25:24;;;;;;;6.40;4.33;;;17.20;63.50;;;;;;5051865;28;20787;-48
2023/05/12 00:27:51;;;;;;;6.40;4.73;;;16.90;63.40;;;;;;5051922;28;20441;-48
2023/05/12 00:30:18;;;;;;;6.83;5.10;;;16.80;63.40;;;;;;5049943;28;20475;-48
2023/05/12 00:32:45;;;;;;;7.50;5.07;;;17.10;64.80;;;;;;5050503;28;20437;-47
2023/05/12 00:35:13;;;;;;;8.43;5.10;;;16.60;63.60;;;;;;5051727;28;20466;-47
2023/05/12 00:37:39;;;;;;;8.03;4.77;;;16.80;64.00;;;;;;5051796;28;20953;-47
2023/05/12 00:40:07;;;;;;;7.20;5.37;;;17.10;64.40;;;;;;5050194;28;20441;-48
2023/05/12 00:42:34;;;;;;;6.60;5.50;;;16.90;64.30;;;;;;5051604;28;20437;-47
2023/05/12 00:45:01;;;;;;;10.57;6.20;;;16.70;64.30;;;;;;5050184;28;20571;-48
2023/05/12 00:47:28;;;;;;;9.10;5.70;;;16.60;64.20;;;;;;5050476;28;20449;-47
2023/05/12 00:49:55;;;;;;;7.20;4.83;;;16.40;64.20;;;;;;5051283;28;20483;-48
2023/05/12 00:52:23;;;;;;;5.43;4.70;;;17.00;65.10;;;;;;5051659;28;20463;-47
2023/05/12 00:54:50;;;;;;;10.50;5.50;;;16.40;64.40;;;;;;5051562;28;20459;-48
2023/05/12 00:57:16;;;;;;;8.77;5.67;;;16.80;65.00;;;;;;5050255;28;20956;-48
2023/05/12 00:59:43;;;;;;;6.67;4.90;;;16.80;65.70;;;;;;5049925;28;20443;-49
2023/05/12 01:02:10;;;;;;;10.20;5.07;;;16.40;64.50;;;;;;5050317;28;20447;-49
2023/05/12 01:04:38;;;;;;;6.53;5.23;;;16.10;64.30;;;;;;5051709;28;20563;-48
2023/05/12 01:07:10;;;;;;;11.53;5.07;;;16.60;64.90;;;;;;5054148;28;20483;-48
2023/05/12 01:09:38;;;;;;;9.40;5.30;;;17.10;65.30;;;;;;5053642;28;20561;-49
2023/05/12 01:12:05;;;;;;;10.30;4.37;;;16.40;64.70;;;;;;5053980;28;20880;-49
2023/05/12 01:14:33;;;;;;;7.27;4.23;;;16.50;64.70;;;;;;5053854;28;20653;-49
2023/05/12 01:17:02;;;;;;;7.70;4.87;;;16.80;65.10;;;;;;5053851;28;20792;-48
2023/05/12 01:19:40;;;;;;;5.90;5.03;;;16.40;64.80;;;;;;5053576;28;20551;-48
2023/05/12 01:22:09;;;;;;;6.47;5.33;;;16.90;65.40;;;;;;5053696;28;20454;-48
2023/05/12 01:24:45;;;;;;;7.30;5.27;;;16.60;65.10;;;;;;5053605;28;20479;-48
2023/05/12 01:27:14;;;;;;;6.30;4.63;;;16.30;64.90;;;;;;5053759;28;20971;-48
2023/05/12 01:29:40;;;;;;;6.53;4.80;;;16.00;64.60;;;;;;5053128;28;20538;-48
2023/05/12 01:32:09;;;;;;;8.73;5.10;;;16.40;65.10;;;;;;5053676;28;20480;-48
2023/05/12 01:34:35;;;;;;;6.43;4.60;;;16.30;65.20;;;;;;5053536;28;20475;-49
2023/05/12 01:37:02;;;;;;;6.30;5.70;;;16.40;65.40;;;;;;5054800;28;20404;-48
2023/05/12 01:39:29;;;;;;;8.50;5.23;;;16.40;65.50;;;;;;5053040;28;20454;-48
2023/05/12 01:41:56;;;;;;;11.80;5.63;;;16.30;65.50;;;;;;5054835;28;21002;-48
2023/05/12 01:44:24;;;;;;;6.73;5.13;;;16.20;65.50;;;;;;5054573;28;20528;-48
2023/05/12 01:46:51;;;;;;;10.17;4.70;;;16.00;65.30;;;;;;5053482;28;20956;-49
2023/05/12 01:49:17;;;;;;;10.47;4.40;;;16.30;65.80;;;;;;5052889;28;20454;-48
2023/05/12 01:51:45;;;;;;;5.97;5.00;;;16.30;66.00;;;;;;5053176;28;20483;-48
2023/05/12 01:54:12;;;;;;;9.13;5.60;;;16.30;66.20;;;;;;5053168;28;20491;-48
2023/05/12 01:56:40;;;;;;;7.07;4.80;;;16.10;66.10;;;;;;5053241;28;20869;-49
2023/05/12 01:59:07;;;;;;;7.70;5.60;;;15.90;66.00;;;;;;5053224;28;20460;-48
2023/05/12 02:01:35;;;;;;;6.70;5.57;;;16.50;66.80;;;;;;5053773;28;20443;-48
2023/05/12 02:04:03;;;;;;;8.50;5.90;;;15.70;66.20;;;;;;5053759;28;20498;-47
2023/05/12 02:06:31;;;;;;;8.53;5.07;;;16.10;66.80;;;;;;5054055;28;20492;-47
2023/05/12 02:08:58;;;;;;;10.43;5.70;;;16.10;66.90;;;;;;5053712;28;20440;-47
2023/05/12 02:11:24;;;;;;;7.50;5.90;;;16.10;67.20;;;;;;5053720;28;20896;-48
2023/05/12 02:13:51;;;;;;;5.73;5.23;;;15.60;66.90;;;;;;5053319;28;20463;-48
2023/05/12 02:16:18;;;;;;;9.23;5.40;;;15.30;66.80;;;;;;5052676;28;20479;-48
2023/05/12 02:18:46;;;;;;;12.00;6.63;;;15.80;67.60;;;;;;5052522;28;20572;-47
2023/05/12 02:21:13;;;;;;;7.87;5.57;;;15.60;67.70;;;;;;5052742;28;20479;-48
2023/05/12 02:23:40;;;;;;;6.63;5.20;;;15.70;68.00;;;;;;5052688;28;20465;-48
2023/05/12 02:26:06;;;;;;;10.80;5.23;;;15.30;67.60;;;;;;5052824;28;20465;-49
2023/05/12 02:28:35;;;;;;;8.77;5.57;;;16.10;68.60;;;;;;5052337;28;20494;-48
2023/05/12 02:31:02;;;;;;;9.93;5.23;;;15.20;67.80;;;;;;5052471;28;20517;-48
2023/05/12 02:33:30;;;;;;;7.37;5.97;;;15.20;67.90;;;;;;5052399;28;20464;-48
2023/05/12 02:35:58;;;;;;;11.23;6.20;;;15.70;68.70;;;;;;5053788;28;20520;-48
2023/05/12 02:38:25;;;;;;;11.57;5.83;;;15.40;68.60;;;;;;5052022;28;20815;-48
2023/05/12 02:40:51;;;;;;;8.40;5.60;;;15.40;68.60;;;;;;5052335;28;20458;-48
2023/05/12 02:43:18;;;;;;;8.13;5.97;;;15.30;68.70;;;;;;5052174;28;20475;-48
2023/05/12 02:45:45;;;;;;;8.07;5.60;;;15.60;69.30;;;;;;5052229;28;20828;-48
2023/05/12 02:48:11;;;;;;;8.67;6.23;;;15.60;69.50;;;;;;5053003;28;20431;-49
2023/05/12 02:50:38;;;;;;;8.87;6.00;;;15.10;69.10;;;;;;5052065;28;20466;-48
2023/05/12 02:53:06;;;;;;;8.00;5.53;;;14.70;69.10;;;;;;5051961;28;21048;-48
2023/05/12 02:55:33;;;;;;;8.43;5.63;;;15.00;69.40;;;;;;5053423;28;20881;-48
2023/05/12 02:57:59;;;;;;;8.43;6.03;;;14.90;69.40;;;;;;5053775;28;20431;-49
2023/05/12 03:00:26;;;;;;;11.50;5.67;;;15.20;70.00;;;;;;5051655;28;20443;-48
2023/05/12 03:02:53;;;;;;;10.80;5.40;;;14.90;69.70;;;;;;5051945;28;20451;-48
2023/05/12 03:05:20;;;;;;;15.40;6.00;;;15.20;70.30;;;;;;5053191;28;20932;-47
2023/05/12 03:07:48;;;;;;;7.53;5.77;;;15.30;70.50;;;;;;5051739;28;20459;-48
2023/05/12 03:10:16;;;;;;;10.13;5.43;;;14.40;69.70;;;;;;5051395;28;20498;-48
2023/05/12 03:12:43;;;;;;;11.60;6.00;;;15.20;70.90;;;;;;5052892;28;20438;-48
2023/05/12 03:15:10;;;;;;;10.70;5.67;;;14.90;70.50;;;;;;5051616;28;20472;-48
2023/05/12 03:17:37;;;;;;;9.60;6.07;;;14.90;70.60;;;;;;5051587;28;20938;-48
2023/05/12 03:20:05;;;;;;;11.07;5.37;;;14.80;70.70;;;;;;5051460;28;20454;-49
2023/05/12 03:22:31;;;;;;;9.10;5.60;;;15.00;71.10;;;;;;5051481;28;20529;-48
2023/05/12 03:24:58;;;;;;;11.20;5.80;;;14.70;71.10;;;;;;5051293;28;20466;-48
2023/05/12 03:27:26;;;;;;;8.47;5.70;;;14.60;71.10;;;;;;5050895;28;20447;-49
2023/05/12 03:29:53;;;;;;;12.73;6.03;;;14.70;71.20;;;;;;5050983;28;20433;-48
2023/05/12 03:32:20;;;;;;;14.17;6.40;;;14.80;71.40;;;;;;5051250;28;20482;-47
2023/05/12 03:34:46;;;;;;;10.80;6.00;;;14.70;71.30;;;;;;5051016;28;20488;-49
2023/05/12 03:37:13;;;;;;;11.93;6.00;;;14.70;71.40;;;;;;5052501;28;20429;-49
2023/05/12 03:39:39;;;;;;;9.20;5.80;;;14.80;71.60;;;;;;5050856;28;20462;-48
2023/05/12 03:42:06;;;;;;;10.90;6.73;;;14.10;70.90;;;;;;5052500;28;20798;-49
2023/05/12 03:44:35;;;;;;;16.07;6.10;;;14.60;71.50;;;;;;5050881;28;21071;-48
2023/05/12 03:47:01;;;;;;;9.73;6.70;;;14.40;71.30;;;;;;5051051;28;20460;-48
2023/05/12 03:49:28;;;;;;;14.07;6.50;;;14.90;72.10;;;;;;5050755;28;20444;-48
2023/05/12 03:51:55;;;;;;;7.90;5.63;;;14.70;71.90;;;;;;5052360;28;20502;-49
2023/05/12 03:54:22;;;;;;;8.90;5.70;;;14.10;71.30;;;;;;5052258;28;20883;-48
2023/05/12 03:56:48;;;;;;;6.97;5.50;;;14.60;71.90;;;;;;5050848;28;20810;-47
2023/05/12 03:59:15;;;;;;;8.73;5.70;;;14.50;71.90;;;;;;5050753;28;20453;-48
2023/05/12 04:01:43;;;;;;;13.70;5.80;;;14.40;71.90;;;;;;5052573;28;20426;-47
2023/05/12 04:04:10;;;;;;;7.53;5.90;;;14.40;71.90;;;;;;5050645;28;20477;-47
2023/05/12 04:06:37;;;;;;;8.83;6.20;;;14.10;71.60;;;;;;5051946;28;20435;-48
2023/05/12 04:09:04;;;;;;;13.57;6.90;;;14.80;72.50;;;;;;5050230;28;20443;-48
2023/05/12 04:11:30;;;;;;;8.40;5.80;;;14.70;72.30;;;;;;5051828;28;21017;-48
2023/05/12 04:13:57;;;;;;;10.17;6.10;;;14.90;72.40;;;;;;5050347;28;20472;-49
2023/05/12 04:16:24;;;;;;;8.57;6.80;;;14.60;71.90;;;;;;5050798;28;20446;-48
2023/05/12 04:18:52;;;;;;;9.70;6.20;;;15.20;72.40;;;;;;5051556;28;20842;-48
2023/05/12 04:21:19;;;;;;;13.00;8.03;;;15.20;72.00;;;;;;5051615;28;20791;-49
2023/05/12 04:23:45;;;;;;;11.33;6.23;;;15.30;71.90;;;;;;5050281;28;20553;-49
2023/05/12 04:26:12;;;;;;;12.13;7.10;;;15.30;71.70;;;;;;5050628;28;20455;-49
2023/05/12 04:28:38;;;;;;;10.70;6.40;;;15.50;71.80;;;;;;5050078;28;20492;-48
2023/05/12 04:31:05;;;;;;;6.97;5.77;;;15.20;71.40;;;;;;5050429;28;20489;-49
2023/05/12 04:33:33;;;;;;;12.53;7.17;;;14.80;71.10;;;;;;5050222;28;20466;-48
2023/05/12 04:36:01;;;;;;;10.07;6.30;;;15.60;71.90;;;;;;5050243;28;20504;-50
2023/05/12 04:38:27;;;;;;;16.50;6.63;;;15.20;71.60;;;;;;5050139;28;20448;-49
2023/05/12 04:40:58;;;;;;;10.77;7.10;;;15.20;71.50;;;;;;5055678;28;20446;-48
2023/05/12 04:43:25;;;;;;;10.20;6.13;;;15.50;71.70;;;;;;5055129;28;20835;-48
2023/05/12 04:45:53;;;;;;;9.10;6.10;;;15.40;71.70;;;;;;5055230;28;20454;-48
2023/05/12 04:48:20;;;;;;;9.70;6.53;;;15.20;71.50;;;;;;5054878;28;20469;-48
2023/05/12 04:50:47;;;;;;;10.23;7.20;;;15.60;71.90;;;;;;5055152;28;20516;-48
2023/05/12 04:53:15;;;;;;;12.23;6.03;;;15.20;71.50;;;;;;5056369;28;20412;-47
2023/05/12 04:55:44;;;;;;;13.83;6.90;;;15.60;71.80;;;;;;5056447;28;20986;-49
2023/05/12 04:58:12;;;;;;;7.60;5.63;;;15.20;71.40;;;;;;5054460;28;20537;-47
2023/05/12 05:00:39;;;;;;;10.70;6.53;;;15.10;71.20;;;;;;5054283;28;20828;-48
2023/05/12 05:03:06;;;;;;;12.50;6.57;;;15.00;71.10;;;;;;5054045;28;21012;-48
2023/05/12 05:05:32;;;;;;;7.57;6.03;;;15.20;71.20;;;;;;5055492;28;20445;-48
2023/05/12 05:08:00;;;;;;;12.77;5.70;;;15.60;71.60;;;;;;5053979;28;20809;-48
2023/05/12 05:10:28;;;;;;;12.80;6.37;;;15.40;71.20;;;;;;5053684;28;20542;-48
2023/05/12 05:12:55;;;;;;;10.37;6.23;;;15.90;71.30;;;;;;5053679;28;20487;-47
2023/05/12 05:15:21;;;;;;;7.83;6.17;;;15.60;70.80;;;;;;5053777;28;20461;-48
2023/05/12 05:17:48;;;;;;;14.73;6.80;;;16.10;70.90;;;;;;5053647;28;20429;-48
2023/05/12 05:20:16;;;;;;;9.47;6.40;;;16.00;70.60;;;;;;5053275;28;20451;-48
2023/05/12 05:22:43;;;;;;;7.17;6.20;;;15.80;70.00;;;;;;5052825;28;20926;-48
2023/05/12 05:25:10;;;;;;;11.53;6.37;;;16.30;70.30;;;;;;5053085;28;20974;-48
2023/05/12 05:27:38;;;;;;;9.03;6.53;;;16.60;70.10;;;;;;5053182;28;20454;-49
2023/05/12 05:30:07;;;;;;;8.60;6.20;;;16.30;69.40;;;;;;5052964;28;20453;-48
2023/05/12 05:32:36;;;;;;;10.97;7.03;;;16.60;69.20;;;;;;5053021;28;20482;-49
2023/05/12 05:35:03;;;;;;;12.40;6.37;;;16.80;68.60;;;;;;5054465;28;20461;-48
2023/05/12 05:37:32;;;;;;;12.07;6.20;;;16.50;67.40;;;;;;5053362;28;20474;-49
2023/05/12 05:39:58;;;;;;;10.60;6.17;;;16.90;67.30;;;;;;5052301;28;20493;-47
2023/05/12 05:42:25;;;;;;;10.80;6.67;;;17.40;67.50;;;;;;5054298;28;20510;-48
2023/05/12 05:44:54;;;;;;;9.13;6.60;;;17.50;67.30;;;;;;5053109;28;20478;-52
2023/05/12 05:47:20;;;;;;;11.43;6.40;;;17.90;67.40;;;;;;5052687;28;20542;-50
2023/05/12 05:49:47;;;;;;;10.23;6.10;;;17.10;66.40;;;;;;5051511;28;20455;-48
2023/05/12 05:52:14;;;;;;;15.60;5.80;;;17.40;66.30;;;;;;5052321;28;20955;-50
2023/05/12 05:54:41;;;;;;;9.20;6.00;;;17.60;66.20;;;;;;5052703;28;20460;-49
2023/05/12 05:57:08;;;;;;;8.60;6.17;;;17.60;66.00;;;;;;5052503;28;20448;-50
2023/05/12 05:59:35;;;;;;;9.10;5.80;;;17.60;66.20;;;;;;5052060;28;20457;-48
2023/05/12 06:02:05;;;;;;;10.57;6.80;;;17.80;65.80;;;;;;5052613;28;20449;-49
2023/05/12 06:04:32;;;;;;;13.20;6.90;;;18.00;65.70;;;;;;5053991;28;20551;-50
2023/05/12 06:06:58;;;;;;;7.00;6.30;;;17.60;64.90;;;;;;5052354;28;20458;-49
2023/05/12 06:09:25;;;;;;;10.80;6.53;;;17.90;65.10;;;;;;5053293;28;20428;-50
2023/05/12 06:11:52;;;;;;;12.00;5.93;;;17.90;64.80;;;;;;5052220;28;20469;-50
2023/05/12 06:14:18;;;;;;;10.63;5.70;;;18.00;64.60;;;;;;5053930;28;20459;-49
2023/05/12 06:16:45;;;;;;;11.23;5.97;;;18.10;64.40;;;;;;5052338;28;20460;-49
2023/05/12 06:19:14;;;;;;;11.07;5.90;;;17.90;64.00;;;;;;5051868;28;20446;-50
2023/05/12 06:21:41;;;;;;;12.57;6.10;;;18.50;64.30;;;;;;5051853;28;20802;-48
2023/05/12 06:24:07;;;;;;;14.07;6.30;;;18.30;63.70;;;;;;5052161;28;20508;-48
2023/05/12 06:26:34;;;;;;;10.70;6.73;;;18.20;63.80;;;;;;5053607;28;20440;-48
2023/05/12 06:29:00;;;;;;;10.80;5.70;;;18.30;63.50;;;;;;5053471;28;20433;-49
2023/05/12 06:31:27;;;;;;;9.60;5.93;;;18.50;63.50;;;;;;5052120;28;20478;-49
2023/05/12 06:33:54;;;;;;;12.90;5.77;;;18.40;63.40;;;;;;5053183;28;21057;-49
2023/05/12 06:36:22;;;;;;;10.10;5.70;;;18.50;63.50;;;;;;5051725;28;21003;-49
2023/05/12 06:38:49;;;;;;;13.60;7.50;;;18.80;64.00;;;;;;5051411;28;21019;-48
2023/05/12 06:41:16;;;;;;;6.87;5.10;;;18.60;63.90;;;;;;5051583;28;20461;-49
2023/05/12 06:43:43;;;;;;;15.20;5.70;;;18.60;64.00;;;;;;5051542;28;21040;-47
2023/05/12 06:46:10;;;;;;;8.33;5.60;;;18.80;63.70;;;;;;5053264;28;20430;-48
2023/05/12 06:48:36;;;;;;;12.10;5.93;;;18.40;63.20;;;;;;5052554;28;20438;-47
2023/05/12 06:51:04;;;;;;;10.47;6.00;;;18.30;62.80;;;;;;5053027;28;20436;-49
2023/05/12 06:53:32;;;;;;;8.90;5.30;;;18.50;63.00;;;;;;5052928;28;20458;-48
2023/05/12 06:55:59;;;;;;;10.37;5.50;;;18.70;63.40;;;;;;5053034;28;20870;-49
2023/05/12 06:58:25;;;;;;;15.03;6.53;;;18.50;62.80;;;;;;5052728;28;20449;-49
2023/05/12 07:00:52;;;;;;;9.90;5.23;;;18.40;62.60;;;;;;5051896;28;20447;-50
2023/05/12 07:03:19;;;;;;;11.67;5.43;;;18.60;62.70;;;;;;5051441;28;20835;-48
2023/05/12 07:05:45;;;;;;;8.63;5.17;;;18.70;62.70;;;;;;5052791;28;20868;-49
2023/05/12 07:08:12;;;;;;;7.17;5.10;;;18.40;62.10;;;;;;5052319;28;20434;-48
2023/05/12 07:10:40;;;;;;;7.30;4.93;;;18.30;62.00;;;;;;5052603;28;20442;-49
2023/05/12 07:13:06;;;;;;;11.70;5.63;;;18.60;62.60;;;;;;5052549;28;20485;-48
2023/05/12 07:15:33;;;;;;;15.20;5.43;;;18.60;62.40;;;;;;5052751;28;20414;-48
2023/05/12 07:18:00;;;;;;;7.03;5.70;;;18.80;62.30;;;;;;5050800;28;20437;-49
2023/05/12 07:20:27;;;;;;;5.20;4.57;;;18.60;62.50;;;;;;5052052;28;20438;-49
2023/05/12 07:22:55;;;;;;;11.50;5.13;;;18.80;63.10;;;;;;5052339;28;20486;-50
2023/05/12 07:25:22;;;;;;;7.90;4.50;;;18.70;63.00;;;;;;5052495;28;20947;-49
2023/05/12 07:27:50;;;;;;;7.93;6.17;;;18.60;62.00;;;;;;5052385;28;20449;-48
2023/05/12 07:30:16;;;;;;;8.40;5.20;;;18.60;62.20;;;;;;5052193;28;20768;-48
2023/05/12 07:32:43;;;;;;;8.60;4.60;;;18.90;62.80;;;;;;5052618;28;20517;-48
2023/05/12 07:35:10;;;;;;;10.07;5.60;;;19.00;62.80;;;;;;5053134;28;20450;-49
2023/05/12 07:37:37;;;;;;;11.10;5.10;;;18.70;62.30;;;;;;5052676;28;20414;-49
2023/05/12 07:40:06;;;;;;;8.37;5.00;;;19.20;62.70;;;;;;5051760;28;20436;-49
2023/05/12 07:42:33;;;;;;;12.50;5.00;;;18.70;61.70;;;;;;5051730;28;20435;-49
2023/05/12 07:45:01;;;;;;;7.13;5.07;;;19.10;62.80;;;;;;5051707;28;20525;-49
2023/05/12 07:47:27;;;;;;;6.67;4.77;;;18.90;62.10;;;;;;5051849;28;20466;-48
2023/05/12 07:49:54;;;;;;;5.53;4.80;;;18.70;61.70;;;;;;5051581;28;20530;-48
2023/05/12 07:52:21;;;;;;;14.17;5.57;;;19.00;61.40;;;;;;5051995;28;20481;-50
2023/05/12 07:54:47;;;;;;;11.37;6.70;;;19.00;61.70;;;;;;5051887;28;20460;-50
2023/05/12 07:57:14;;;;;;;7.27;4.47;;;18.60;61.20;;;;;;5051606;28;20893;-49
2023/05/12 07:59:41;;;;;;;5.20;4.30;;;19.00;61.40;;;;;;5051958;28;20427;-50
2023/05/12 08:02:09;;;;;;;8.30;4.50;;;19.00;60.10;;;;;;5052030;28;20485;-49
2023/05/12 08:04:35;;;;;;;9.17;4.80;;;19.10;59.90;;;;;;5051360;28;20450;-48
2023/05/12 08:07:02;;;;;;;5.80;4.10;;;19.20;59.90;;;;;;5050200;28;20544;-49
2023/05/12 08:09:29;;;;;;;8.60;4.80;;;19.40;60.00;;;;;;5051208;28;20441;-50
2023/05/12 08:11:55;;;;;;;6.70;5.17;;;19.10;59.00;;;;;;5051562;28;20516;-49
2023/05/12 08:14:24;;;;;;;5.53;4.00;;;19.10;59.30;;;;;;5051429;28;20470;-49
2023/05/12 08:16:51;;;;;;;12.43;5.00;;;19.20;59.30;;;;;;5051705;28;20445;-48
2023/05/12 08:19:18;;;;;;;5.63;4.40;;;18.90;59.40;;;;;;5051259;28;20485;-49
2023/05/12 08:21:45;;;;;;;8.93;4.40;;;19.30;59.60;;;;;;5051561;28;20437;-50
2023/05/12 08:24:12;;;;;;;14.00;4.90;;;19.10;59.70;;;;;;5051439;28;20480;-50
2023/05/12 08:26:38;;;;;;;11.40;4.50;;;19.10;58.30;;;;;;5051774;28;20438;-48
2023/05/12 08:29:07;;;;;;;5.73;4.10;;;18.90;57.80;;;;;;5050910;28;20441;-49
2023/05/12 08:31:34;;;;;;;10.70;4.87;;;19.40;58.70;;;;;;5051637;28;20451;-49
2023/05/12 08:34:00;;;;;;;8.30;4.50;;;19.60;58.30;;;;;;5051289;28;20453;-49
2023/05/12 08:36:28;;;;;;;13.03;5.60;;;19.20;57.80;;;;;;5051419;28;20716;-49
2023/05/12 08:38:55;;;;;;;6.40;4.23;;;19.60;57.60;;;;;;5050619;28;20438;-49
2023/05/12 08:41:30;;;;;;;9.63;4.67;;;19.10;56.90;;;;;;5050024;28;20439;-49
2023/05/12 08:43:57;;;;;;;11.13;4.40;;;19.40;55.90;;;;;;5050442;28;20485;-49
2023/05/12 08:46:25;;;;;;;12.33;3.80;;;19.70;55.60;;;;;;5050972;28;20876;-50
2023/05/12 08:48:53;;;;;;;15.10;3.50;;;19.90;54.70;;;;;;5050758;28;20791;-51
2023/05/12 08:51:21;;;;;;;15.13;4.33;;;20.10;54.30;;;;;;5064726;28;20446;-51
2023/05/12 08:53:52;;;;;;;10.40;4.40;;;19.80;54.30;;;;;;5070451;28;20493;-48
2023/05/12 08:56:21;;;;;;;6.67;3.93;;;19.60;55.00;;;;;;5070798;28;20429;-48
2023/05/12 08:58:48;;;;;;;8.33;3.40;;;19.90;54.60;;;;;;5070712;28;20431;-48
2023/05/12 09:01:16;;;;;;;4.00;3.60;;;19.50;53.20;;;;;;5071186;28;20443;-49
2023/05/12 09:03:43;;;;;;;5.43;3.90;;;19.70;53.20;;;;;;5071208;28;20482;-49
2023/05/12 09:06:11;;;;;;;6.13;4.03;;;20.10;52.80;;;;;;5071407;28;20905;-48
2023/05/12 09:08:38;;;;;;;8.07;4.47;;;20.00;52.30;;;;;;5069387;28;20478;-48
2023/05/12 09:11:09;;;;;;;5.43;3.83;;;20.10;52.70;;;;;;5071158;28;20432;-49
2023/05/12 09:13:42;;;;;;;9.83;3.70;;;19.90;52.60;;;;;;5071491;28;20487;-49
2023/05/12 09:16:12;;;;;;;6.93;3.80;;;20.00;52.00;;;;;;5062258;28;20807;-49
2023/05/12 09:18:47;;;;;;;6.10;3.60;;;20.20;51.30;;;;;;5050820;28;20443;-50
2023/05/12 09:21:14;;;;;;;8.03;4.10;;;20.10;50.30;;;;;;5050995;28;20439;-49
2023/05/12 09:23:40;;;;;;;4.40;3.23;;;20.10;49.80;;;;;;5050510;28;20535;-49
2023/05/12 09:26:08;;;;;;;7.43;3.20;;;20.00;49.30;;;;;;5052912;28;20435;-49
2023/05/12 09:28:37;;;;;;;5.30;4.10;;;19.80;50.10;;;;;;5054279;28;20439;-50
2023/05/12 09:31:14;;;;;;;5.90;3.77;;;19.60;50.30;;;;;;5054731;28;20447;-49
2023/05/12 09:33:41;;;;;;;9.17;3.93;;;20.30;50.60;;;;;;5054502;28;20578;-49
2023/05/12 09:36:08;;;;;;;7.40;3.53;;;20.20;50.00;;;;;;5047517;28;20471;-50
2023/05/12 09:38:35;;;;;;;8.97;3.30;;;20.20;48.90;;;;;;5047689;28;20460;-52
2023/05/12 09:41:02;;;;;;;11.50;3.93;;;20.20;48.90;;;;;;5050324;28;20435;-50
2023/05/12 09:43:30;;;;;;;10.83;3.73;;;20.70;49.20;;;;;;5043587;28;20801;-49
2023/05/12 09:45:56;;;;;;;5.37;3.97;;;20.50;49.10;;;;;;5053955;28;20514;-49
2023/05/12 09:48:23;;;;;;;5.97;4.10;;;20.30;49.40;;;;;;5052963;28;20898;-49
2023/05/12 09:50:51;;;;;;;7.70;3.47;;;20.50;49.30;;;;;;5064007;28;20900;-49
2023/05/12 09:53:21;;;;;;;5.93;3.50;;;20.40;47.90;;;;;;5072638;28;20482;-49
2023/05/12 09:55:48;;;;;;;7.43;3.20;;;20.40;47.20;;;;;;5056000;28;20473;-49
2023/05/12 09:58:17;;;;;;;5.70;3.63;;;20.40;47.10;;;;;;5048603;28;20446;-51
2023/05/12 10:00:46;;;;;;;4.67;3.30;;;20.10;47.10;;;;;;5035189;28;20487;-50
2023/05/12 10:03:14;;;;;;;10.37;3.40;;;20.30;47.30;;;;;;5033730;28;20452;-49
2023/05/12 10:05:48;;;;;;;6.10;3.97;;;20.70;48.20;;;;;;5053165;28;20455;-49
2023/05/12 10:08:20;;;;;;;6.80;3.30;;;20.50;48.10;;;;;;5053739;28;20451;-48
2023/05/12 10:10:49;;;;;;;9.47;4.07;;;20.50;48.10;;;;;;5053487;28;20425;-49
2023/05/12 10:13:16;;;;;;;7.23;3.50;;;20.60;48.50;;;;;;5053446;28;20528;-48
2023/05/12 10:15:46;;;;;;;7.20;3.33;;;20.50;48.40;;;;;;5053614;28;20433;-49
2023/05/12 10:18:13;;;;;;;4.77;3.37;;;20.30;48.30;;;;;;5053235;28;20542;-48
2023/05/12 10:20:40;;;;;;;8.40;3.83;;;21.00;48.70;;;;;;5053283;28;20449;-48
2023/05/12 10:23:08;;;;;;;5.47;3.20;;;20.50;48.50;;;;;;5052841;28;20443;-50
2023/05/12 10:25:35;;;;;;;4.63;3.27;;;20.30;48.80;;;;;;5052952;28;20535;-49
2023/05/12 10:28:03;;;;;;;6.07;3.30;;;20.70;47.90;;;;;;5053035;28;20988;-47
2023/05/12 10:30:30;;;;;;;4.17;3.53;;;20.70;47.10;;;;;;5053026;28;20440;-49
2023/05/12 10:33:00;;;;;;;5.73;2.70;;;20.70;46.90;;;;;;5053228;28;20946;-48
2023/05/12 10:35:33;;;;;;;6.47;3.40;;;20.70;47.50;;;;;;5049621;28;20449;-49
2023/05/12 10:38:06;;;;;;;4.87;3.60;;;20.70;47.80;;;;;;5036846;28;20462;-49
2023/05/12 10:40:33;;;;;;;4.40;3.10;;;20.60;47.70;;;;;;5032892;28;20533;-48
2023/05/12 10:43:00;;;;;;;3.90;3.00;;;20.70;47.60;;;;;;5032604;28;20441;-50
2023/05/12 10:45:27;;;;;;;4.93;3.30;;;20.70;48.10;;;;;;5033161;28;20445;-49
2023/05/12 10:48:07;;;;;;;5.87;4.20;;;20.70;47.70;;;;;;5033184;28;20451;-48
2023/05/12 10:50:33;;;;;;;9.27;3.73;;;20.80;47.80;;;;;;5051465;28;20494;-50
2023/05/12 10:53:00;;;;;;;3.10;2.80;;;20.80;48.00;;;;;;5071144;28;20484;-50
2023/05/12 10:55:32;;;;;;;8.33;3.30;;;21.00;48.00;;;;;;5071578;28;20654;-49
2023/05/12 10:58:05;;;;;;;7.77;3.97;;;20.70;47.80;;;;;;5070870;28;20855;-50
2023/05/12 11:00:42;;;;;;;6.63;3.40;;;20.80;48.00;;;;;;5070622;28;20855;-49
2023/05/12 11:03:15;;;;;;;8.30;4.50;;;20.80;48.20;;;;;;5070946;28;20492;-50
2023/05/12 11:05:42;;;;;;;10.40;3.60;;;20.70;48.50;;;;;;5069727;28;20952;-48
2023/05/12 11:08:09;;;;;;;8.87;3.80;;;20.80;49.10;;;;;;5072271;28;20515;-52
2023/05/12 11:10:36;;;;;;;7.50;3.60;;;20.30;48.20;;;;;;5072044;28;20539;-49
2023/05/12 11:13:03;;;;;;;8.10;3.20;;;20.80;48.70;;;;;;5071991;28;20475;-50
2023/05/12 11:15:30;;;;;;;6.20;3.30;;;20.60;48.60;;;;;;5072262;28;20437;-50
2023/05/12 11:17:57;;;;;;;5.90;3.33;;;20.70;48.70;;;;;;5072348;28;20949;-49
2023/05/12 11:20:26;;;;;;;7.00;4.00;;;20.90;48.80;;;;;;5071865;28;20436;-49
2023/05/12 11:22:53;;;;;;;12.13;3.57;;;21.00;48.60;;;;;;5071683;28;20441;-49
2023/05/12 11:25:20;;;;;;;4.20;2.90;;;21.30;48.60;;;;;;5035083;28;20475;-50
2023/05/12 11:27:47;;;;;;;6.43;3.43;;;21.10;48.10;;;;;;5057787;28;20589;-49
2023/05/12 11:30:14;;;;;;;4.97;4.03;;;21.20;48.20;;;;;;5066044;28;20446;-49
2023/05/12 11:32:41;;;;;;;5.30;2.97;;;21.10;47.00;;;;;;5051726;28;20441;-50
2023/05/12 11:35:11;;;;;;;4.93;3.20;;;21.10;46.70;;;;;;5062548;28;20468;-50
2023/05/12 11:37:40;;;;;;;9.13;3.50;;;21.10;47.30;;;;;;5070532;28;20463;-50
2023/05/12 11:40:15;;;;;;;5.57;3.63;;;21.10;47.80;;;;;;5070557;28;20426;-50
2023/05/12 11:42:46;;;;;;;9.47;3.43;;;21.50;47.70;;;;;;5069590;28;20199;-50
2023/05/12 11:45:23;;;;;;;5.30;3.13;;;21.40;47.80;;;;;;5092419;22;20500;-43
2023/05/12 11:47:50;;;;;;;5.17;3.17;;;21.00;47.40;;;;;;5071716;28;20475;-42
2023/05/12 11:50:21;;;;;;;6.43;3.30;;;21.40;48.00;;;;;;5072126;28;20452;-43
2023/05/12 11:52:50;;;;;;;5.03;3.03;;;21.40;48.00;;;;;;5072635;28;20815;-43
2023/05/12 11:55:22;;;;;;;5.63;2.97;;;21.30;47.90;;;;;;5072373;28;21072;-43
2023/05/12 11:57:59;;;;;;;9.63;3.37;;;21.30;48.00;;;;;;5071923;28;20441;-43
2023/05/12 12:00:32;;;;;;;6.50;3.53;;;21.20;47.70;;;;;;5060362;28;20440;-41
2023/05/12 12:03:06;;;;;;;6.57;3.57;;;21.20;48.00;;;;;;5073191;28;20444;-42
2023/05/12 12:05:33;;;;;;;6.70;3.63;;;21.20;48.00;;;;;;5073464;28;20584;-43
2023/05/12 12:08:06;;;;;;;5.00;3.40;;;21.20;48.30;;;;;;5073202;28;20434;-42
2023/05/12 12:10:33;;;;;;;4.55;3.40;;;21.30;48.30;;;;;;5071582;28;20422;-42
2023/05/12 12:13:01;;;;;;;7.10;3.77;;;21.70;47.80;;;;;;5068621;28;20200;-44
2023/05/12 12:15:27;;;;;;;6.90;3.43;;;21.80;48.10;;;;;;5072672;28;20475;-42
2023/05/12 12:17:54;;;;;;;4.40;3.40;;;21.50;48.10;;;;;;5072156;28;20429;-42
2023/05/12 12:20:23;;;;;;;7.97;3.80;;;21.50;47.90;;;;;;5063907;28;20468;-42
2023/05/12 12:22:50;;;;;;;3.83;3.27;;;21.60;48.00;;;;;;5059571;28;20552;-42
2023/05/12 12:25:18;;;;;;;7.30;3.20;;;21.60;47.40;;;;;;5035211;28;20490;-43
2023/05/12 12:27:45;;;;;;;5.33;3.67;;;21.70;47.10;;;;;;5056850;28;20499;-43
2023/05/12 12:30:13;;;;;;;4.63;3.47;;;21.70;46.70;;;;;;5065599;28;20443;-43
2023/05/12 12:32:40;;;;;;;6.47;3.50;;;22.00;46.20;;;;;;5071674;28;20448;-44
2023/05/12 12:35:07;;;;;;;5.47;3.63;;;21.80;46.40;;;;;;5072692;28;20231;-44
2023/05/12 12:37:34;;;;;;;5.53;3.13;;;22.10;47.00;;;;;;5072401;28;20441;-43
2023/05/12 12:40:06;;;;;;;10.27;3.57;;;21.80;47.10;;;;;;5072577;28;21018;-43
2023/05/12 12:42:35;;;;;;;6.77;3.23;;;21.80;47.30;;;;;;5072886;28;20482;-43
2023/05/12 12:45:03;;;;;;;5.10;3.43;;;21.80;46.60;;;;;;5054834;28;20527;-44